sensor_id;sensor_type;location;lat;lon;timestamp;P1;durP1;ratioP1;P2;durP2;ratioP2
13311;SDS011;34033;48.672;9.376;2023-04-06T00:00:22;9.37;;;5.13;;
13311;SDS011;34033;48.672;9.376;2023-04-06T00:02:48;8.90;;;5.57;;
13311;SDS011;34033;48.672;9.376;2023-04-06T00:05:13;8.20;;;5.07;;
13311;SDS011;34033;48.672;9.376;2023-04-06T00:07:39;7.53;;;4.80;;
13311;SDS011;34033;48.672;9.376;2023-04-06T00:10:05;7.30;;;5.13;;
13311;SDS011;34033;48.672;9.376;2023-04-06T00:12:31;7.73;;;4.83;;
13311;SDS011;34033;48.672;9.376;2023-04-06T00:14:56;5.87;;;4.67;;
13311;SDS011;34033;48.672;9.376;2023-04-06T00:17:22;6.70;;;5.13;;
13311;SDS011;34033;48.672;9.376;2023-04-06T00:19:47;6.67;;;4.77;;
13311;SDS011;34033;48.672;9.376;2023-04-06T00:22:12;10.03;;;5.67;;
13311;SDS011;34033;48.672;9.376;2023-04-06T00:24:38;11.30;;;5.80;;
13311;SDS011;34033;48.672;9.376;2023-04-06T00:27:03;7.20;;;5.07;;
13311;SDS011;34033;48.672;9.376;2023-04-06T00:29:28;6.50;;;4.67;;
13311;SDS011;34033;48.672;9.376;2023-04-06T00:31:54;9.57;;;4.83;;
13311;SDS011;34033;48.672;9.376;2023-04-06T00:34:19;6.23;;;4.40;;
13311;SDS011;34033;48.672;9.376;2023-04-06T00:36:45;6.80;;;4.33;;
13311;SDS011;34033;48.672;9.376;2023-04-06T00:39:10;6.13;;;4.87;;
13311;SDS011;34033;48.672;9.376;2023-04-06T00:41:36;8.47;;;4.60;;
13311;SDS011;34033;48.672;9.376;2023-04-06T00:44:01;7.40;;;4.80;;
13311;SDS011;34033;48.672;9.376;2023-04-06T00:46:27;6.60;;;4.40;;
13311;SDS011;34033;48.672;9.376;2023-04-06T00:48:53;6.67;;;4.50;;
13311;SDS011;34033;48.672;9.376;2023-04-06T00:51:18;5.80;;;4.57;;
13311;SDS011;34033;48.672;9.376;2023-04-06T00:53:44;7.83;;;4.80;;
13311;SDS011;34033;48.672;9.376;2023-04-06T00:56:10;7.97;;;4.40;;
13311;SDS011;34033;48.672;9.376;2023-04-06T00:58:35;6.43;;;4.67;;
13311;SDS011;34033;48.672;9.376;2023-04-06T01:01:03;6.20;;;4.40;;
13311;SDS011;34033;48.672;9.376;2023-04-06T01:03:29;7.80;;;4.50;;
13311;SDS011;34033;48.672;9.376;2023-04-06T01:05:54;5.37;;;4.50;;
13311;SDS011;34033;48.672;9.376;2023-04-06T01:08:23;5.97;;;4.50;;
13311;SDS011;34033;48.672;9.376;2023-04-06T01:10:49;8.17;;;4.30;;
13311;SDS011;34033;48.672;9.376;2023-04-06T01:13:15;5.27;;;4.13;;
13311;SDS011;34033;48.672;9.376;2023-04-06T01:15:40;5.47;;;4.53;;
13311;SDS011;34033;48.672;9.376;2023-04-06T01:18:07;6.87;;;4.33;;
13311;SDS011;34033;48.672;9.376;2023-04-06T01:20:35;5.83;;;3.90;;
13311;SDS011;34033;48.672;9.376;2023-04-06T01:23:01;5.90;;;4.17;;
13311;SDS011;34033;48.672;9.376;2023-04-06T01:25:26;6.77;;;4.07;;
13311;SDS011;34033;48.672;9.376;2023-04-06T01:27:51;4.50;;;4.10;;
13311;SDS011;34033;48.672;9.376;2023-04-06T01:30:17;7.73;;;4.80;;
13311;SDS011;34033;48.672;9.376;2023-04-06T01:32:43;10.70;;;6.70;;
13311;SDS011;34033;48.672;9.376;2023-04-06T01:35:09;8.43;;;6.23;;
13311;SDS011;34033;48.672;9.376;2023-04-06T01:37:35;9.70;;;6.33;;
13311;SDS011;34033;48.672;9.376;2023-04-06T01:40:00;9.47;;;5.70;;
13311;SDS011;34033;48.672;9.376;2023-04-06T01:42:26;12.20;;;5.20;;
13311;SDS011;34033;48.672;9.376;2023-04-06T01:44:52;7.73;;;5.23;;
13311;SDS011;34033;48.672;9.376;2023-04-06T01:47:18;9.57;;;5.77;;
13311;SDS011;34033;48.672;9.376;2023-04-06T01:49:43;6.37;;;4.60;;
13311;SDS011;34033;48.672;9.376;2023-04-06T01:52:08;8.13;;;4.80;;
13311;SDS011;34033;48.672;9.376;2023-04-06T01:54:34;4.70;;;4.07;;
13311;SDS011;34033;48.672;9.376;2023-04-06T01:56:59;7.00;;;4.07;;
13311;SDS011;34033;48.672;9.376;2023-04-06T01:59:25;4.70;;;3.80;;
13311;SDS011;34033;48.672;9.376;2023-04-06T02:01:50;3.83;;;3.43;;
13311;SDS011;34033;48.672;9.376;2023-04-06T02:04:15;3.93;;;3.47;;
13311;SDS011;34033;48.672;9.376;2023-04-06T02:06:41;9.43;;;3.60;;
13311;SDS011;34033;48.672;9.376;2023-04-06T02:09:06;9.37;;;3.80;;
13311;SDS011;34033;48.672;9.376;2023-04-06T02:11:32;3.93;;;3.37;;
13311;SDS011;34033;48.672;9.376;2023-04-06T02:13:57;4.90;;;3.53;;
13311;SDS011;34033;48.672;9.376;2023-04-06T02:16:22;3.77;;;3.33;;
13311;SDS011;34033;48.672;9.376;2023-04-06T02:18:49;4.80;;;3.67;;
13311;SDS011;34033;48.672;9.376;2023-04-06T02:21:14;4.60;;;3.23;;
13311;SDS011;34033;48.672;9.376;2023-04-06T02:23:44;5.20;;;4.17;;
13311;SDS011;34033;48.672;9.376;2023-04-06T02:26:10;7.63;;;4.30;;
13311;SDS011;34033;48.672;9.376;2023-04-06T02:28:36;7.87;;;4.57;;
13311;SDS011;34033;48.672;9.376;2023-04-06T02:31:01;6.23;;;4.70;;
13311;SDS011;34033;48.672;9.376;2023-04-06T02:33:26;5.00;;;4.27;;
13311;SDS011;34033;48.672;9.376;2023-04-06T02:35:52;5.37;;;4.37;;
13311;SDS011;34033;48.672;9.376;2023-04-06T02:38:17;7.63;;;4.60;;
13311;SDS011;34033;48.672;9.376;2023-04-06T02:40:42;5.10;;;3.80;;
13311;SDS011;34033;48.672;9.376;2023-04-06T02:43:08;10.07;;;4.47;;
13311;SDS011;34033;48.672;9.376;2023-04-06T02:45:33;4.13;;;3.70;;
13311;SDS011;34033;48.672;9.376;2023-04-06T02:47:59;6.03;;;4.00;;
13311;SDS011;34033;48.672;9.376;2023-04-06T02:50:24;4.33;;;3.93;;
13311;SDS011;34033;48.672;9.376;2023-04-06T02:52:51;4.77;;;3.90;;
13311;SDS011;34033;48.672;9.376;2023-04-06T02:55:17;5.07;;;4.07;;
13311;SDS011;34033;48.672;9.376;2023-04-06T02:57:44;6.23;;;3.97;;
13311;SDS011;34033;48.672;9.376;2023-04-06T03:00:10;9.30;;;3.77;;
13311;SDS011;34033;48.672;9.376;2023-04-06T03:02:36;4.77;;;4.03;;
13311;SDS011;34033;48.672;9.376;2023-04-06T03:05:01;4.50;;;3.50;;
13311;SDS011;34033;48.672;9.376;2023-04-06T03:07:28;5.87;;;3.53;;
13311;SDS011;34033;48.672;9.376;2023-04-06T03:09:53;4.97;;;3.90;;
13311;SDS011;34033;48.672;9.376;2023-04-06T03:12:19;4.67;;;3.77;;
13311;SDS011;34033;48.672;9.376;2023-04-06T03:14:44;5.67;;;3.90;;
13311;SDS011;34033;48.672;9.376;2023-04-06T03:17:10;4.27;;;3.00;;
13311;SDS011;34033;48.672;9.376;2023-04-06T03:19:35;5.17;;;3.50;;
13311;SDS011;34033;48.672;9.376;2023-04-06T03:22:01;6.50;;;3.40;;
13311;SDS011;34033;48.672;9.376;2023-04-06T03:24:26;5.83;;;4.20;;
13311;SDS011;34033;48.672;9.376;2023-04-06T03:26:52;4.53;;;3.73;;
13311;SDS011;34033;48.672;9.376;2023-04-06T03:29:17;4.77;;;3.83;;
13311;SDS011;34033;48.672;9.376;2023-04-06T03:31:43;6.00;;;3.97;;
13311;SDS011;34033;48.672;9.376;2023-04-06T03:34:08;5.80;;;4.17;;
13311;SDS011;34033;48.672;9.376;2023-04-06T03:36:34;8.20;;;4.60;;
13311;SDS011;34033;48.672;9.376;2023-04-06T03:39:00;9.27;;;4.27;;
13311;SDS011;34033;48.672;9.376;2023-04-06T03:41:25;5.83;;;3.77;;
13311;SDS011;34033;48.672;9.376;2023-04-06T03:43:51;5.67;;;3.97;;
13311;SDS011;34033;48.672;9.376;2023-04-06T03:46:16;4.87;;;3.63;;
13311;SDS011;34033;48.672;9.376;2023-04-06T03:48:42;5.17;;;4.10;;
13311;SDS011;34033;48.672;9.376;2023-04-06T03:51:07;3.93;;;3.40;;
13311;SDS011;34033;48.672;9.376;2023-04-06T03:53:33;4.07;;;3.63;;
13311;SDS011;34033;48.672;9.376;2023-04-06T03:55:58;4.53;;;3.57;;
13311;SDS011;34033;48.672;9.376;2023-04-06T03:58:23;4.93;;;3.57;;
13311;SDS011;34033;48.672;9.376;2023-04-06T04:00:49;5.13;;;4.03;;
13311;SDS011;34033;48.672;9.376;2023-04-06T04:03:14;4.53;;;3.83;;
13311;SDS011;34033;48.672;9.376;2023-04-06T04:05:40;5.13;;;3.57;;
13311;SDS011;34033;48.672;9.376;2023-04-06T04:08:05;4.93;;;3.87;;
13311;SDS011;34033;48.672;9.376;2023-04-06T04:10:30;4.10;;;3.70;;
13311;SDS011;34033;48.672;9.376;2023-04-06T04:12:56;3.97;;;3.57;;
13311;SDS011;34033;48.672;9.376;2023-04-06T04:15:21;4.10;;;3.70;;
13311;SDS011;34033;48.672;9.376;2023-04-06T04:17:47;10.13;;;4.70;;
13311;SDS011;34033;48.672;9.376;2023-04-06T04:20:14;6.03;;;4.10;;
13311;SDS011;34033;48.672;9.376;2023-04-06T04:22:40;8.97;;;3.67;;
13311;SDS011;34033;48.672;9.376;2023-04-06T04:25:05;4.73;;;3.57;;
13311;SDS011;34033;48.672;9.376;2023-04-06T04:27:31;7.77;;;4.30;;
13311;SDS011;34033;48.672;9.376;2023-04-06T04:29:56;8.33;;;4.70;;
13311;SDS011;34033;48.672;9.376;2023-04-06T04:32:21;5.60;;;4.13;;
13311;SDS011;34033;48.672;9.376;2023-04-06T04:34:47;6.20;;;4.33;;
13311;SDS011;34033;48.672;9.376;2023-04-06T04:37:12;7.50;;;4.00;;
13311;SDS011;34033;48.672;9.376;2023-04-06T04:39:37;6.80;;;4.00;;
13311;SDS011;34033;48.672;9.376;2023-04-06T04:42:03;5.10;;;3.87;;
13311;SDS011;34033;48.672;9.376;2023-04-06T04:44:28;10.20;;;4.70;;
13311;SDS011;34033;48.672;9.376;2023-04-06T04:46:54;6.80;;;3.80;;
13311;SDS011;34033;48.672;9.376;2023-04-06T04:49:19;5.43;;;3.63;;
13311;SDS011;34033;48.672;9.376;2023-04-06T04:51:44;4.57;;;3.63;;
13311;SDS011;34033;48.672;9.376;2023-04-06T04:54:10;5.83;;;3.80;;
13311;SDS011;34033;48.672;9.376;2023-04-06T04:56:35;5.47;;;3.90;;
13311;SDS011;34033;48.672;9.376;2023-04-06T04:59:01;7.50;;;3.83;;
13311;SDS011;34033;48.672;9.376;2023-04-06T05:01:26;4.80;;;4.00;;
13311;SDS011;34033;48.672;9.376;2023-04-06T05:03:51;5.57;;;3.83;;
13311;SDS011;34033;48.672;9.376;2023-04-06T05:06:17;5.90;;;3.87;;
13311;SDS011;34033;48.672;9.376;2023-04-06T05:08:44;7.17;;;4.00;;
13311;SDS011;34033;48.672;9.376;2023-04-06T05:11:09;7.27;;;4.40;;
13311;SDS011;34033;48.672;9.376;2023-04-06T05:13:35;4.33;;;3.50;;
13311;SDS011;34033;48.672;9.376;2023-04-06T05:16:01;5.20;;;3.73;;
13311;SDS011;34033;48.672;9.376;2023-04-06T05:18:26;6.00;;;3.73;;
13311;SDS011;34033;48.672;9.376;2023-04-06T05:20:52;5.57;;;4.07;;
13311;SDS011;34033;48.672;9.376;2023-04-06T05:23:17;4.37;;;3.80;;
13311;SDS011;34033;48.672;9.376;2023-04-06T05:25:43;4.13;;;3.73;;
13311;SDS011;34033;48.672;9.376;2023-04-06T05:28:08;5.47;;;4.30;;
13311;SDS011;34033;48.672;9.376;2023-04-06T05:30:33;6.53;;;4.40;;
13311;SDS011;34033;48.672;9.376;2023-04-06T05:33:00;6.87;;;4.87;;
13311;SDS011;34033;48.672;9.376;2023-04-06T05:35:26;6.40;;;4.60;;
13311;SDS011;34033;48.672;9.376;2023-04-06T05:37:51;6.60;;;4.23;;
13311;SDS011;34033;48.672;9.376;2023-04-06T05:40:16;6.43;;;4.30;;
13311;SDS011;34033;48.672;9.376;2023-04-06T05:42:42;5.73;;;4.10;;
13311;SDS011;34033;48.672;9.376;2023-04-06T05:45:08;6.43;;;3.80;;
13311;SDS011;34033;48.672;9.376;2023-04-06T05:47:35;6.33;;;4.07;;
13311;SDS011;34033;48.672;9.376;2023-04-06T05:50:01;4.37;;;3.70;;
13311;SDS011;34033;48.672;9.376;2023-04-06T05:52:26;6.50;;;4.23;;
13311;SDS011;34033;48.672;9.376;2023-04-06T05:54:52;5.27;;;4.23;;
13311;SDS011;34033;48.672;9.376;2023-04-06T05:57:17;6.63;;;4.40;;
13311;SDS011;34033;48.672;9.376;2023-04-06T05:59:43;5.37;;;4.43;;
13311;SDS011;34033;48.672;9.376;2023-04-06T06:02:08;5.30;;;4.30;;
13311;SDS011;34033;48.672;9.376;2023-04-06T06:04:34;5.77;;;4.03;;
13311;SDS011;34033;48.672;9.376;2023-04-06T06:06:59;6.00;;;4.50;;
13311;SDS011;34033;48.672;9.376;2023-04-06T06:09:25;7.27;;;4.60;;
13311;SDS011;34033;48.672;9.376;2023-04-06T06:11:51;6.80;;;5.27;;
13311;SDS011;34033;48.672;9.376;2023-04-06T06:14:16;5.43;;;4.13;;
13311;SDS011;34033;48.672;9.376;2023-04-06T06:16:42;5.37;;;4.47;;
13311;SDS011;34033;48.672;9.376;2023-04-06T06:19:07;4.80;;;4.30;;
13311;SDS011;34033;48.672;9.376;2023-04-06T06:21:32;7.47;;;4.23;;
13311;SDS011;34033;48.672;9.376;2023-04-06T06:23:58;6.67;;;4.13;;
13311;SDS011;34033;48.672;9.376;2023-04-06T06:26:23;5.23;;;4.13;;
13311;SDS011;34033;48.672;9.376;2023-04-06T06:28:49;6.13;;;3.70;;
13311;SDS011;34033;48.672;9.376;2023-04-06T06:31:14;4.93;;;4.07;;
13311;SDS011;34033;48.672;9.376;2023-04-06T06:33:39;4.83;;;4.03;;
13311;SDS011;34033;48.672;9.376;2023-04-06T06:36:05;5.23;;;4.30;;
13311;SDS011;34033;48.672;9.376;2023-04-06T06:38:30;5.60;;;4.30;;
13311;SDS011;34033;48.672;9.376;2023-04-06T06:40:56;5.90;;;4.60;;
13311;SDS011;34033;48.672;9.376;2023-04-06T06:43:21;8.53;;;4.10;;
13311;SDS011;34033;48.672;9.376;2023-04-06T06:45:47;4.03;;;3.63;;
13311;SDS011;34033;48.672;9.376;2023-04-06T06:48:12;7.23;;;4.43;;
13311;SDS011;34033;48.672;9.376;2023-04-06T06:50:37;5.50;;;4.33;;
13311;SDS011;34033;48.672;9.376;2023-04-06T06:53:03;5.40;;;4.47;;
13311;SDS011;34033;48.672;9.376;2023-04-06T06:55:28;4.20;;;3.73;;
13311;SDS011;34033;48.672;9.376;2023-04-06T06:57:54;6.13;;;4.30;;
13311;SDS011;34033;48.672;9.376;2023-04-06T07:00:19;4.53;;;4.03;;
13311;SDS011;34033;48.672;9.376;2023-04-06T07:02:48;5.70;;;4.70;;
13311;SDS011;34033;48.672;9.376;2023-04-06T07:05:13;5.27;;;4.37;;
13311;SDS011;34033;48.672;9.376;2023-04-06T07:07:40;7.40;;;4.73;;
13311;SDS011;34033;48.672;9.376;2023-04-06T07:10:06;5.03;;;3.87;;
13311;SDS011;34033;48.672;9.376;2023-04-06T07:12:32;5.97;;;4.20;;
13311;SDS011;34033;48.672;9.376;2023-04-06T07:14:58;6.07;;;4.60;;
13311;SDS011;34033;48.672;9.376;2023-04-06T07:17:23;5.33;;;4.07;;
13311;SDS011;34033;48.672;9.376;2023-04-06T07:19:48;4.40;;;3.97;;
13311;SDS011;34033;48.672;9.376;2023-04-06T07:22:14;7.10;;;4.67;;
13311;SDS011;34033;48.672;9.376;2023-04-06T07:24:39;5.03;;;4.33;;
13311;SDS011;34033;48.672;9.376;2023-04-06T07:27:05;5.97;;;4.67;;
13311;SDS011;34033;48.672;9.376;2023-04-06T07:29:31;5.60;;;4.60;;
13311;SDS011;34033;48.672;9.376;2023-04-06T07:31:56;7.73;;;4.47;;
13311;SDS011;34033;48.672;9.376;2023-04-06T07:34:22;6.53;;;4.80;;
13311;SDS011;34033;48.672;9.376;2023-04-06T07:36:47;5.47;;;4.90;;
13311;SDS011;34033;48.672;9.376;2023-04-06T07:39:13;4.73;;;4.00;;
13311;SDS011;34033;48.672;9.376;2023-04-06T07:41:38;4.90;;;4.10;;
13311;SDS011;34033;48.672;9.376;2023-04-06T07:44:04;4.73;;;4.20;;
13311;SDS011;34033;48.672;9.376;2023-04-06T07:46:30;4.27;;;3.87;;
13311;SDS011;34033;48.672;9.376;2023-04-06T07:48:56;4.70;;;4.20;;
13311;SDS011;34033;48.672;9.376;2023-04-06T07:51:22;5.70;;;4.27;;
13311;SDS011;34033;48.672;9.376;2023-04-06T07:53:48;4.40;;;3.97;;
13311;SDS011;34033;48.672;9.376;2023-04-06T07:56:15;6.60;;;4.67;;
13311;SDS011;34033;48.672;9.376;2023-04-06T07:58:41;7.50;;;5.00;;
13311;SDS011;34033;48.672;9.376;2023-04-06T08:01:06;12.43;;;5.13;;
13311;SDS011;34033;48.672;9.376;2023-04-06T08:03:33;5.80;;;4.53;;
13311;SDS011;34033;48.672;9.376;2023-04-06T08:05:59;10.37;;;5.13;;
13311;SDS011;34033;48.672;9.376;2023-04-06T08:08:25;4.67;;;4.27;;
13311;SDS011;34033;48.672;9.376;2023-04-06T08:10:50;10.57;;;4.47;;
13311;SDS011;34033;48.672;9.376;2023-04-06T08:13:16;5.23;;;4.07;;
13311;SDS011;34033;48.672;9.376;2023-04-06T08:15:41;5.27;;;4.33;;
13311;SDS011;34033;48.672;9.376;2023-04-06T08:18:07;5.30;;;4.43;;
13311;SDS011;34033;48.672;9.376;2023-04-06T08:20:33;5.83;;;3.97;;
13311;SDS011;34033;48.672;9.376;2023-04-06T08:22:59;5.70;;;4.50;;
13311;SDS011;34033;48.672;9.376;2023-04-06T08:25:25;5.17;;;4.53;;
13311;SDS011;34033;48.672;9.376;2023-04-06T08:27:51;5.97;;;4.53;;
13311;SDS011;34033;48.672;9.376;2023-04-06T08:30:16;6.17;;;4.77;;
13311;SDS011;34033;48.672;9.376;2023-04-06T08:32:43;5.83;;;4.60;;
13311;SDS011;34033;48.672;9.376;2023-04-06T08:35:09;6.77;;;4.57;;
13311;SDS011;34033;48.672;9.376;2023-04-06T08:37:35;4.90;;;4.40;;
13311;SDS011;34033;48.672;9.376;2023-04-06T08:40:00;5.63;;;4.13;;
13311;SDS011;34033;48.672;9.376;2023-04-06T08:42:26;7.77;;;4.07;;
13311;SDS011;34033;48.672;9.376;2023-04-06T08:44:56;6.27;;;4.57;;
13311;SDS011;34033;48.672;9.376;2023-04-06T08:47:22;9.27;;;5.03;;
13311;SDS011;34033;48.672;9.376;2023-04-06T08:49:47;5.93;;;4.43;;
13311;SDS011;34033;48.672;9.376;2023-04-06T08:52:14;8.87;;;4.30;;
13311;SDS011;34033;48.672;9.376;2023-04-06T08:54:43;5.83;;;4.57;;
13311;SDS011;34033;48.672;9.376;2023-04-06T08:57:08;9.20;;;5.07;;
13311;SDS011;34033;48.672;9.376;2023-04-06T08:59:34;5.37;;;4.33;;
13311;SDS011;34033;48.672;9.376;2023-04-06T09:02:02;7.40;;;5.00;;
13311;SDS011;34033;48.672;9.376;2023-04-06T09:04:29;7.97;;;4.60;;
13311;SDS011;34033;48.672;9.376;2023-04-06T09:06:54;6.40;;;4.10;;
13311;SDS011;34033;48.672;9.376;2023-04-06T09:09:20;5.60;;;4.47;;
13311;SDS011;34033;48.672;9.376;2023-04-06T09:11:46;5.57;;;4.17;;
13311;SDS011;34033;48.672;9.376;2023-04-06T09:14:13;6.10;;;4.80;;
13311;SDS011;34033;48.672;9.376;2023-04-06T09:16:44;5.97;;;4.67;;
13311;SDS011;34033;48.672;9.376;2023-04-06T09:19:10;5.03;;;4.47;;
13311;SDS011;34033;48.672;9.376;2023-04-06T09:21:37;6.40;;;3.97;;
13311;SDS011;34033;48.672;9.376;2023-04-06T09:24:05;5.57;;;3.90;;
13311;SDS011;34033;48.672;9.376;2023-04-06T09:26:32;7.67;;;5.03;;
13311;SDS011;34033;48.672;9.376;2023-04-06T09:29:09;10.57;;;4.97;;
13311;SDS011;34033;48.672;9.376;2023-04-06T09:31:34;6.70;;;4.90;;
13311;SDS011;34033;48.672;9.376;2023-04-06T09:34:00;5.90;;;4.43;;
13311;SDS011;34033;48.672;9.376;2023-04-06T09:36:30;7.93;;;4.83;;
13311;SDS011;34033;48.672;9.376;2023-04-06T09:41:28;5.53;;;4.53;;
13311;SDS011;34033;48.672;9.376;2023-04-06T09:46:41;6.30;;;4.53;;
13311;SDS011;34033;48.672;9.376;2023-04-06T09:49:07;5.80;;;4.87;;
13311;SDS011;34033;48.672;9.376;2023-04-06T09:51:40;7.13;;;4.83;;
13311;SDS011;34033;48.672;9.376;2023-04-06T09:54:10;5.57;;;4.33;;
13311;SDS011;34033;48.672;9.376;2023-04-06T09:56:44;7.43;;;5.23;;
13311;SDS011;34033;48.672;9.376;2023-04-06T09:59:26;6.57;;;4.40;;
13311;SDS011;34033;48.672;9.376;2023-04-06T10:05:05;6.37;;;4.40;;
13311;SDS011;34033;48.672;9.376;2023-04-06T10:07:37;5.00;;;4.33;;
13311;SDS011;34033;48.672;9.376;2023-04-06T10:10:05;6.87;;;4.40;;
13311;SDS011;34033;48.672;9.376;2023-04-06T10:12:31;4.40;;;4.00;;
13311;SDS011;34033;48.672;9.376;2023-04-06T10:14:57;5.47;;;4.20;;
13311;SDS011;34033;48.672;9.376;2023-04-06T10:17:22;3.50;;;3.20;;
13311;SDS011;34033;48.672;9.376;2023-04-06T10:19:55;3.70;;;3.30;;
13311;SDS011;34033;48.672;9.376;2023-04-06T10:22:59;4.30;;;3.20;;
13311;SDS011;34033;48.672;9.376;2023-04-06T10:25:30;4.93;;;3.57;;
13311;SDS011;34033;48.672;9.376;2023-04-06T10:28:01;3.37;;;3.07;;
13311;SDS011;34033;48.672;9.376;2023-04-06T10:30:34;4.07;;;3.47;;
13311;SDS011;34033;48.672;9.376;2023-04-06T10:33:00;4.00;;;3.30;;
13311;SDS011;34033;48.672;9.376;2023-04-06T10:35:38;4.73;;;3.57;;
13311;SDS011;34033;48.672;9.376;2023-04-06T10:38:04;8.20;;;3.77;;
13311;SDS011;34033;48.672;9.376;2023-04-06T10:40:30;4.43;;;3.60;;
13311;SDS011;34033;48.672;9.376;2023-04-06T10:43:06;3.73;;;3.30;;
13311;SDS011;34033;48.672;9.376;2023-04-06T10:45:33;3.80;;;3.13;;
13311;SDS011;34033;48.672;9.376;2023-04-06T10:47:59;4.53;;;3.57;;
13311;SDS011;34033;48.672;9.376;2023-04-06T10:50:24;4.23;;;3.47;;
13311;SDS011;34033;48.672;9.376;2023-04-06T10:53:00;4.33;;;3.60;;
13311;SDS011;34033;48.672;9.376;2023-04-06T10:55:27;3.40;;;3.10;;
13311;SDS011;34033;48.672;9.376;2023-04-06T10:57:54;4.07;;;3.67;;
13311;SDS011;34033;48.672;9.376;2023-04-06T11:00:20;4.83;;;3.90;;
13311;SDS011;34033;48.672;9.376;2023-04-06T11:02:45;6.07;;;4.10;;
13311;SDS011;34033;48.672;9.376;2023-04-06T11:05:11;3.73;;;3.30;;
13311;SDS011;34033;48.672;9.376;2023-04-06T11:07:38;5.07;;;3.80;;
13311;SDS011;34033;48.672;9.376;2023-04-06T11:10:04;4.80;;;3.50;;
13311;SDS011;34033;48.672;9.376;2023-04-06T11:12:30;6.33;;;3.93;;
13311;SDS011;34033;48.672;9.376;2023-04-06T11:14:59;4.80;;;3.77;;
13311;SDS011;34033;48.672;9.376;2023-04-06T11:17:35;4.60;;;3.60;;
13311;SDS011;34033;48.672;9.376;2023-04-06T11:20:01;4.17;;;3.57;;
13311;SDS011;34033;48.672;9.376;2023-04-06T11:22:27;4.67;;;3.90;;
13311;SDS011;34033;48.672;9.376;2023-04-06T11:24:53;3.67;;;3.37;;
13311;SDS011;34033;48.672;9.376;2023-04-06T11:27:18;3.10;;;2.80;;
13311;SDS011;34033;48.672;9.376;2023-04-06T11:29:45;3.17;;;2.90;;
13311;SDS011;34033;48.672;9.376;2023-04-06T11:32:11;4.20;;;3.30;;
13311;SDS011;34033;48.672;9.376;2023-04-06T11:34:44;3.80;;;3.50;;
13311;SDS011;34033;48.672;9.376;2023-04-06T11:37:12;3.37;;;3.07;;
13311;SDS011;34033;48.672;9.376;2023-04-06T11:39:47;6.87;;;3.43;;
13311;SDS011;34033;48.672;9.376;2023-04-06T11:42:20;2.83;;;2.63;;
13311;SDS011;34033;48.672;9.376;2023-04-06T11:44:46;3.03;;;2.77;;
13311;SDS011;34033;48.672;9.376;2023-04-06T11:47:14;4.40;;;2.97;;
13311;SDS011;34033;48.672;9.376;2023-04-06T11:49:41;3.07;;;2.77;;
13311;SDS011;34033;48.672;9.376;2023-04-06T11:52:17;3.43;;;2.90;;
13311;SDS011;34033;48.672;9.376;2023-04-06T11:54:48;4.00;;;3.27;;
13311;SDS011;34033;48.672;9.376;2023-04-06T11:57:15;4.93;;;3.17;;
13311;SDS011;34033;48.672;9.376;2023-04-06T11:59:41;3.40;;;3.10;;
13311;SDS011;34033;48.672;9.376;2023-04-06T12:02:07;4.70;;;2.80;;
13311;SDS011;34033;48.672;9.376;2023-04-06T12:04:32;3.60;;;3.23;;
13311;SDS011;34033;48.672;9.376;2023-04-06T12:06:58;3.33;;;3.03;;
13311;SDS011;34033;48.672;9.376;2023-04-06T12:09:23;3.10;;;2.80;;
13311;SDS011;34033;48.672;9.376;2023-04-06T12:11:49;3.53;;;2.70;;
13311;SDS011;34033;48.672;9.376;2023-04-06T12:14:14;3.30;;;2.97;;
13311;SDS011;34033;48.672;9.376;2023-04-06T12:16:41;3.27;;;2.97;;
13311;SDS011;34033;48.672;9.376;2023-04-06T12:19:06;3.77;;;3.37;;
13311;SDS011;34033;48.672;9.376;2023-04-06T12:21:32;3.67;;;3.30;;
13311;SDS011;34033;48.672;9.376;2023-04-06T12:23:58;4.67;;;3.50;;
13311;SDS011;34033;48.672;9.376;2023-04-06T12:26:24;3.77;;;2.93;;
13311;SDS011;34033;48.672;9.376;2023-04-06T12:28:50;2.80;;;2.60;;
13311;SDS011;34033;48.672;9.376;2023-04-06T12:31:16;2.97;;;2.67;;
13311;SDS011;34033;48.672;9.376;2023-04-06T12:33:48;3.90;;;2.63;;
13311;SDS011;34033;48.672;9.376;2023-04-06T12:36:15;3.17;;;2.87;;
13311;SDS011;34033;48.672;9.376;2023-04-06T12:38:44;2.60;;;2.40;;
13311;SDS011;34033;48.672;9.376;2023-04-06T12:41:10;2.70;;;2.50;;
13311;SDS011;34033;48.672;9.376;2023-04-06T12:43:36;3.27;;;2.90;;
13311;SDS011;34033;48.672;9.376;2023-04-06T12:46:02;5.97;;;2.20;;
13311;SDS011;34033;48.672;9.376;2023-04-06T12:48:27;2.57;;;2.37;;
13311;SDS011;34033;48.672;9.376;2023-04-06T12:50:57;2.60;;;2.40;;
13311;SDS011;34033;48.672;9.376;2023-04-06T12:53:23;3.17;;;2.80;;
13311;SDS011;34033;48.672;9.376;2023-04-06T12:55:48;3.87;;;2.97;;
13311;SDS011;34033;48.672;9.376;2023-04-06T12:58:14;2.70;;;2.50;;
13311;SDS011;34033;48.672;9.376;2023-04-06T13:00:40;2.50;;;2.30;;
13311;SDS011;34033;48.672;9.376;2023-04-06T13:03:05;2.70;;;2.50;;
13311;SDS011;34033;48.672;9.376;2023-04-06T13:05:31;3.10;;;2.50;;
13311;SDS011;34033;48.672;9.376;2023-04-06T13:07:56;2.73;;;2.53;;
13311;SDS011;34033;48.672;9.376;2023-04-06T13:10:22;2.47;;;2.27;;
13311;SDS011;34033;48.672;9.376;2023-04-06T13:12:47;3.20;;;2.90;;
13311;SDS011;34033;48.672;9.376;2023-04-06T13:15:13;3.03;;;2.70;;
13311;SDS011;34033;48.672;9.376;2023-04-06T13:17:38;2.40;;;2.20;;
13311;SDS011;34033;48.672;9.376;2023-04-06T13:20:04;2.43;;;2.23;;
13311;SDS011;34033;48.672;9.376;2023-04-06T13:22:30;2.27;;;2.07;;
13311;SDS011;34033;48.672;9.376;2023-04-06T13:24:56;1.97;;;1.87;;
13311;SDS011;34033;48.672;9.376;2023-04-06T13:27:21;2.60;;;2.40;;
13311;SDS011;34033;48.672;9.376;2023-04-06T13:29:47;2.47;;;2.27;;
13311;SDS011;34033;48.672;9.376;2023-04-06T13:32:12;3.30;;;2.33;;
13311;SDS011;34033;48.672;9.376;2023-04-06T13:34:38;2.50;;;2.30;;
13311;SDS011;34033;48.672;9.376;2023-04-06T13:37:03;2.33;;;2.13;;
13311;SDS011;34033;48.672;9.376;2023-04-06T13:39:28;2.50;;;2.30;;
13311;SDS011;34033;48.672;9.376;2023-04-06T13:41:54;5.23;;;2.30;;
13311;SDS011;34033;48.672;9.376;2023-04-06T13:44:21;3.83;;;2.50;;
13311;SDS011;34033;48.672;9.376;2023-04-06T13:46:46;5.63;;;2.43;;
13311;SDS011;34033;48.672;9.376;2023-04-06T13:49:12;2.27;;;2.10;;
13311;SDS011;34033;48.672;9.376;2023-04-06T13:51:38;2.40;;;2.20;;
13311;SDS011;34033;48.672;9.376;2023-04-06T13:54:03;2.30;;;2.10;;
13311;SDS011;34033;48.672;9.376;2023-04-06T13:56:29;2.30;;;2.10;;
13311;SDS011;34033;48.672;9.376;2023-04-06T13:58:55;2.20;;;2.10;;
13311;SDS011;34033;48.672;9.376;2023-04-06T14:01:21;2.40;;;2.23;;
13311;SDS011;34033;48.672;9.376;2023-04-06T14:03:48;2.23;;;2.07;;
13311;SDS011;34033;48.672;9.376;2023-04-06T14:06:13;2.67;;;2.47;;
13311;SDS011;34033;48.672;9.376;2023-04-06T14:08:39;2.87;;;2.57;;
13311;SDS011;34033;48.672;9.376;2023-04-06T14:11:06;2.60;;;2.40;;
13311;SDS011;34033;48.672;9.376;2023-04-06T14:13:33;3.00;;;2.43;;
13311;SDS011;34033;48.672;9.376;2023-04-06T14:15:58;3.30;;;2.40;;
13311;SDS011;34033;48.672;9.376;2023-04-06T14:18:24;2.57;;;2.37;;
13311;SDS011;34033;48.672;9.376;2023-04-06T14:20:55;2.57;;;2.37;;
13311;SDS011;34033;48.672;9.376;2023-04-06T14:23:24;2.63;;;2.43;;
13311;SDS011;34033;48.672;9.376;2023-04-06T14:25:51;2.70;;;2.50;;
13311;SDS011;34033;48.672;9.376;2023-04-06T14:28:17;2.50;;;2.30;;
13311;SDS011;34033;48.672;9.376;2023-04-06T14:30:42;1.98;;;1.88;;
13311;SDS011;34033;48.672;9.376;2023-04-06T14:33:08;3.53;;;2.47;;
13311;SDS011;34033;48.672;9.376;2023-04-06T14:35:36;2.30;;;2.10;;
13311;SDS011;34033;48.672;9.376;2023-04-06T14:38:03;2.43;;;2.23;;
13311;SDS011;34033;48.672;9.376;2023-04-06T14:40:28;3.08;;;2.75;;
13311;SDS011;34033;48.672;9.376;2023-04-06T14:42:54;2.50;;;2.30;;
13311;SDS011;34033;48.672;9.376;2023-04-06T14:45:20;2.83;;;2.40;;
13311;SDS011;34033;48.672;9.376;2023-04-06T14:47:47;2.80;;;2.60;;
13311;SDS011;34033;48.672;9.376;2023-04-06T14:50:12;3.17;;;2.60;;